createdAt,value
2018-11-07T07:31:28.367Z,83.13
2018-11-07T07:33:56.644Z,83.50
2018-11-07T07:36:24.880Z,80.70
2018-11-07T07:38:53.093Z,84.23
2018-11-07T07:41:21.352Z,94.90
2018-11-07T07:43:49.575Z,98.17
2018-11-07T07:46:17.820Z,99.63
2018-11-07T07:48:46.044Z,92.67
2018-11-07T07:51:14.292Z,92.07
2018-11-07T07:53:42.508Z,98.43
2018-11-07T07:56:10.780Z,93.93
2018-11-07T07:58:39.006Z,98.37
2018-11-07T08:01:07.247Z,94.97
2018-11-07T08:03:35.464Z,92.90
2018-11-07T08:06:03.713Z,95.83
2018-11-07T08:08:31.944Z,97.63
2018-11-07T08:11:00.187Z,93.43
2018-11-07T08:13:28.509Z,96.83
2018-11-07T08:15:56.671Z,104.10
2018-11-07T08:18:24.888Z,95.23
2018-11-07T08:20:53.136Z,98.60
2018-11-07T08:23:21.352Z,95.00
2018-11-07T08:25:53.324Z,96.87
2018-11-07T08:28:21.554Z,83.83
2018-11-07T08:30:49.801Z,84.93
2018-11-07T08:33:18.036Z,88.93
2018-11-07T08:35:46.274Z,85.07
2018-11-07T08:38:14.489Z,82.87
2018-11-07T08:40:42.743Z,85.07
2018-11-07T08:43:10.976Z,81.57
2018-11-07T08:45:39.216Z,81.03
2018-11-07T08:48:07.461Z,82.13
2018-11-07T08:50:35.683Z,85.97
2018-11-07T08:53:03.913Z,71.47
2018-11-07T08:55:32.124Z,76.53
2018-11-07T08:58:00.356Z,70.30
2018-11-07T09:00:28.564Z,74.00
2018-11-07T09:02:56.801Z,76.73
2018-11-07T09:05:25.024Z,73.90
2018-11-07T09:07:53.247Z,81.50
2018-11-07T09:10:22.723Z,88.13
2018-11-07T09:12:50.955Z,81.00
2018-11-07T09:15:20.411Z,80.77
2018-11-07T09:17:48.651Z,67.53
2018-11-07T09:20:18.124Z,61.33
2018-11-07T09:22:46.361Z,57.77
2018-11-07T09:25:15.184Z,59.30
2018-11-07T09:27:43.995Z,58.23
2018-11-07T09:30:14.557Z,51.33
2018-11-07T09:32:42.800Z,46.93
2018-11-07T09:35:11.779Z,54.03
2018-11-07T09:37:40.032Z,48.10
2018-11-07T09:40:11.308Z,51.40
2018-11-07T09:42:40.339Z,47.20
2018-11-07T09:45:09.928Z,47.80
2018-11-07T09:47:38.401Z,44.27
2018-11-07T09:50:07.412Z,39.70
2018-11-07T09:52:35.832Z,43.40
2018-11-07T09:55:04.545Z,40.57
2018-11-07T09:57:32.787Z,43.90
2018-11-07T10:00:01.004Z,41.33
2018-11-07T10:02:29.235Z,38.33
2018-11-07T10:04:57.448Z,35.97
2018-11-07T10:07:25.672Z,37.80
2018-11-07T10:09:53.892Z,38.93
2018-11-07T10:12:22.158Z,36.07
2018-11-07T10:14:50.383Z,38.50
2018-11-07T10:17:18.620Z,37.30
2018-11-07T10:19:46.844Z,35.93
2018-11-07T10:22:15.089Z,36.40
2018-11-07T10:24:43.314Z,35.37
2018-11-07T10:27:11.658Z,31.90
2018-11-07T10:29:40.046Z,39.87
2018-11-07T10:32:08.089Z,32.97
2018-11-07T10:34:36.336Z,33.10
2018-11-07T10:37:04.587Z,30.43
2018-11-07T10:39:32.829Z,35.93
2018-11-07T10:42:01.097Z,32.90
2018-11-07T10:44:29.400Z,32.00
2018-11-07T10:46:57.592Z,32.80
2018-11-07T10:49:25.800Z,28.83
2018-11-07T10:51:54.075Z,31.20
2018-11-07T10:54:22.327Z,32.20
2018-11-07T10:56:50.540Z,31.90
2018-11-07T10:59:18.787Z,30.73
2018-11-07T11:01:52.341Z,31.50
2018-11-07T11:04:20.581Z,30.33
2018-11-07T11:06:48.791Z,36.03
2018-11-07T11:09:17.025Z,31.97
2018-11-07T11:11:45.245Z,29.33
2018-11-07T11:14:13.484Z,31.93
2018-11-07T11:16:41.706Z,32.50
2018-11-07T11:19:09.968Z,36.23
2018-11-07T11:21:38.196Z,30.20
2018-11-07T11:24:06.437Z,32.70
2018-11-07T11:26:34.660Z,32.20
2018-11-07T11:29:02.933Z,29.87
2018-11-07T11:31:31.185Z,29.80
2018-11-07T11:33:59.543Z,32.20
2018-11-07T11:36:27.711Z,35.90
2018-11-07T11:38:55.949Z,29.63
2018-11-07T11:41:24.213Z,28.53
2018-11-07T11:43:52.460Z,48.13
2018-11-07T11:46:20.692Z,33.33
2018-11-07T11:48:48.945Z,28.40
2018-11-07T11:51:17.223Z,28.97
2018-11-07T11:53:45.456Z,29.10
2018-11-07T11:56:13.696Z,28.87
2018-11-07T11:58:41.933Z,29.70
2018-11-07T12:01:10.203Z,29.67
2018-11-07T12:03:38.420Z,29.60
2018-11-07T12:06:06.666Z,27.53
2018-11-07T12:08:34.993Z,27.23
2018-11-07T12:11:03.164Z,29.97
2018-11-07T12:13:31.436Z,30.93
2018-11-07T12:15:59.687Z,27.60
2018-11-07T12:18:27.912Z,28.30
2018-11-07T12:20:56.166Z,27.83
2018-11-07T12:23:24.413Z,26.43
2018-11-07T12:25:52.659Z,24.80
2018-11-07T12:28:20.884Z,29.73
2018-11-07T12:30:49.140Z,29.73
2018-11-07T12:33:17.364Z,27.70
2018-11-07T12:35:45.603Z,28.37
2018-11-07T12:38:13.832Z,26.70
2018-11-07T12:40:42.078Z,27.07
2018-11-07T12:43:10.340Z,29.97
2018-11-07T12:45:38.572Z,29.57
2018-11-07T12:48:06.796Z,27.00
2018-11-07T12:50:35.045Z,24.47
2018-11-07T12:53:03.269Z,28.87
2018-11-07T12:55:31.519Z,26.83
2018-11-07T12:57:59.811Z,30.73
2018-11-07T13:00:28.116Z,28.30
2018-11-07T13:02:56.419Z,29.13
2018-11-07T13:05:25.467Z,26.30
2018-11-07T13:07:54.434Z,38.23
2018-11-07T13:10:23.159Z,28.33
2018-11-07T13:12:51.841Z,25.77
2018-11-07T13:15:20.142Z,30.47
2018-11-07T13:17:49.144Z,28.03
2018-11-07T13:20:19.024Z,33.37
2018-11-07T13:22:48.531Z,30.20
2018-11-07T13:25:17.112Z,30.70
2018-11-07T13:27:45.340Z,29.80
2018-11-07T13:30:15.678Z,28.97
2018-11-07T13:32:43.932Z,31.50
2018-11-07T13:35:12.980Z,32.73
2018-11-07T13:37:42.070Z,29.50
2018-11-07T13:40:13.152Z,31.97
2018-11-07T13:42:41.596Z,29.83
2018-11-07T13:45:13.926Z,28.13
2018-11-07T13:47:43.253Z,32.33
2018-11-07T13:50:12.262Z,31.40
2018-11-07T13:52:40.510Z,27.70
2018-11-07T13:55:09.536Z,30.93
2018-11-07T13:57:38.160Z,28.47
2018-11-07T14:00:09.416Z,28.50
2018-11-07T14:02:37.644Z,29.27
2018-11-07T14:05:06.613Z,27.17
2018-11-07T14:07:34.976Z,33.00
2018-11-07T14:10:03.341Z,28.67
2018-11-07T14:12:31.584Z,27.57
2018-11-07T14:14:59.808Z,31.17
2018-11-07T14:17:28.053Z,28.83
2018-11-07T14:19:56.287Z,28.77
2018-11-07T14:22:24.524Z,29.77
2018-11-07T14:24:52.748Z,28.93
2018-11-07T14:27:21.041Z,29.63
2018-11-07T14:29:49.231Z,30.07
2018-11-07T14:32:17.501Z,27.97
2018-11-07T14:34:45.948Z,30.30
2018-11-07T14:37:14.192Z,30.33
2018-11-07T14:39:42.410Z,30.00
2018-11-07T14:42:10.709Z,33.63
2018-11-07T14:44:38.915Z,32.10
2018-11-07T14:47:07.185Z,31.77
2018-11-07T14:49:35.407Z,37.43
2018-11-07T14:52:03.664Z,37.20
2018-11-07T14:54:31.887Z,45.77
2018-11-07T14:57:00.122Z,56.47
2018-11-07T14:59:28.353Z,60.23
2018-11-07T15:01:56.596Z,62.53
2018-11-07T15:04:24.820Z,72.50
2018-11-07T15:06:53.108Z,59.07
2018-11-07T15:09:21.334Z,61.90
2018-11-07T15:11:49.632Z,48.47
2018-11-07T15:14:17.824Z,39.90
2018-11-07T15:16:46.068Z,41.03
2018-11-07T15:19:14.284Z,39.47
2018-11-07T15:21:42.525Z,39.80
2018-11-07T15:24:10.740Z,38.57
2018-11-07T15:26:38.984Z,37.03
2018-11-07T15:29:07.208Z,41.33
2018-11-07T15:31:35.456Z,41.73
2018-11-07T15:34:03.677Z,37.73
2018-11-07T15:36:31.962Z,36.90
2018-11-07T15:39:00.148Z,38.43
2018-11-07T15:41:28.402Z,38.43
2018-11-07T15:43:56.629Z,33.73
2018-11-07T15:46:24.871Z,36.67
2018-11-07T15:48:53.084Z,31.00
2018-11-07T15:51:37.173Z,37.10
2018-11-07T15:54:05.652Z,31.70
2018-11-07T15:56:35.205Z,40.83
2018-11-07T15:59:03.468Z,43.67
2018-11-07T16:01:31.728Z,48.50
2018-11-07T16:04:01.032Z,42.97
2018-11-07T16:06:29.244Z,40.87
2018-11-07T16:08:58.496Z,49.27
2018-11-07T16:11:28.007Z,37.73
2018-11-07T16:13:56.493Z,38.03
2018-11-07T16:16:24.971Z,40.90
2018-11-07T16:18:53.209Z,43.63
2018-11-07T16:21:21.424Z,42.67
2018-11-07T16:23:49.719Z,35.73
2018-11-07T16:26:17.913Z,37.17
2018-11-07T16:28:46.182Z,35.77
2018-11-07T16:31:14.410Z,37.77
2018-11-07T16:33:42.864Z,35.83
2018-11-07T16:36:11.088Z,38.90
2018-11-07T16:38:39.377Z,37.83
2018-11-07T16:41:07.659Z,50.33
2018-11-07T16:43:35.963Z,45.57
2018-11-07T16:46:04.260Z,51.73
2018-11-07T16:48:32.516Z,46.60
2018-11-07T16:51:00.736Z,48.17
2018-11-07T16:53:28.964Z,45.13
2018-11-07T16:55:57.205Z,45.83
2018-11-07T16:58:25.448Z,37.73
2018-11-07T17:00:53.671Z,38.37
2018-11-07T17:03:21.911Z,40.03
2018-11-07T17:05:50.136Z,38.53
2018-11-07T17:08:18.377Z,36.50
2018-11-07T17:10:46.632Z,40.90
2018-11-07T17:13:14.860Z,39.90
2018-11-07T17:15:43.129Z,50.77
2018-11-07T17:18:11.347Z,35.20
2018-11-07T17:20:39.616Z,39.50
2018-11-07T17:23:07.824Z,40.27
2018-11-07T17:25:36.075Z,35.70
2018-11-07T17:28:04.517Z,36.07
2018-11-07T17:30:32.748Z,37.77
2018-11-07T17:33:01.011Z,38.23
2018-11-07T17:35:29.235Z,37.33
2018-11-07T17:37:57.483Z,38.97
2018-11-07T17:40:25.752Z,37.33
2018-11-07T17:42:54.199Z,40.40
2018-11-07T17:45:22.995Z,39.80
2018-11-07T17:47:52.060Z,42.67
2018-11-07T17:50:21.072Z,44.77
2018-11-07T17:52:49.663Z,42.30
2018-11-07T17:55:18.476Z,47.03
2018-11-07T17:57:46.700Z,39.07
2018-11-07T18:00:19.217Z,44.10
2018-11-07T18:02:47.459Z,41.60
2018-11-07T18:05:15.700Z,41.77
2018-11-07T18:07:43.953Z,40.13
2018-11-07T18:10:16.452Z,36.77
2018-11-07T18:12:45.032Z,42.77
2018-11-07T18:15:13.508Z,49.80
2018-11-07T18:17:41.737Z,48.33
2018-11-07T18:20:11.119Z,45.90
2018-11-07T18:22:39.387Z,43.27
2018-11-07T18:25:08.722Z,46.83
2018-11-07T18:27:36.956Z,44.40
2018-11-07T18:30:06.154Z,46.30
2018-11-07T18:32:34.387Z,44.17
2018-11-07T18:35:02.695Z,38.17
2018-11-07T18:37:30.868Z,39.07
2018-11-07T18:39:59.099Z,51.90
2018-11-07T18:42:27.344Z,55.43
2018-11-07T18:44:55.589Z,56.97
2018-11-07T18:47:23.828Z,58.73
2018-11-07T18:49:52.091Z,59.67
2018-11-07T18:52:20.318Z,60.27
2018-11-07T18:54:48.564Z,55.10
2018-11-07T18:57:16.808Z,52.93
2018-11-07T18:59:45.124Z,55.93
2018-11-07T19:02:13.363Z,47.20
2018-11-07T19:04:41.663Z,44.60
2018-11-07T19:07:09.896Z,53.90
2018-11-07T19:09:38.135Z,51.60
2018-11-07T19:12:06.484Z,44.37
2018-11-07T19:14:34.730Z,44.03
2018-11-07T19:17:03.068Z,41.53
2018-11-07T19:19:31.321Z,48.97
2018-11-07T19:21:59.769Z,51.10
2018-11-07T19:24:28.011Z,39.03
2018-11-07T19:26:56.367Z,45.57
2018-11-07T19:29:24.535Z,42.83
2018-11-07T19:31:52.755Z,42.60
2018-11-07T19:34:21.011Z,38.40
2018-11-07T19:36:49.244Z,39.80
2018-11-07T19:39:17.473Z,40.80
2018-11-07T19:41:45.716Z,41.87
2018-11-07T19:44:13.962Z,42.10
2018-11-07T19:46:42.248Z,43.87
2018-11-07T19:49:10.492Z,44.17
2018-11-07T19:51:38.704Z,43.13
2018-11-07T19:54:06.927Z,43.97
2018-11-07T19:56:35.166Z,47.97
2018-11-07T19:59:03.384Z,46.67
2018-11-07T20:01:31.630Z,39.07
2018-11-07T20:03:59.844Z,38.67
2018-11-07T20:06:28.092Z,37.37
2018-11-07T20:08:56.316Z,44.57
2018-11-07T20:11:24.544Z,42.20
2018-11-07T20:13:52.764Z,38.60
2018-11-07T20:16:21.085Z,40.00
2018-11-07T20:18:49.265Z,40.73
2018-11-07T20:21:17.501Z,43.50
2018-11-07T20:23:45.740Z,42.83
2018-11-07T20:26:13.984Z,41.60
2018-11-07T20:28:42.269Z,40.33
2018-11-07T20:31:10.471Z,41.73
2018-11-07T20:33:38.696Z,42.30
2018-11-07T20:36:07.019Z,47.60
2018-11-07T20:38:35.183Z,50.93
2018-11-07T20:41:03.436Z,44.93
2018-11-07T20:43:31.684Z,40.93
2018-11-07T20:45:59.924Z,44.53
2018-11-07T20:48:28.145Z,40.87
2018-11-07T20:50:56.384Z,51.30
2018-11-07T20:53:24.615Z,41.87
2018-11-07T20:55:52.856Z,40.23
2018-11-07T20:58:21.075Z,40.20
2018-11-07T21:00:49.318Z,43.57
2018-11-07T21:03:17.540Z,46.03
